Time;durP1;ratioP1;P1;durP2;ratioP2;P2;SDS_P1;SDS_P2;PMS_P1;PMS_P2;Temp;Humidity;BMP_temperature;BMP_pressure;BME280_temperature;BME280_humidity;BME280_pressure;Samples;Min_cycle;Max_cycle;Signal;HPM_P1;HPM_P2
2021/04/27 00:00:08;;;;;;;;;;;;;;;9.80;37.81;101457.06;4895529;28;96879;-79
2021/04/27 00:02:35;;;;;;;;;;;;;;;9.70;38.37;101452.03;4894673;28;98322;-80
2021/04/27 00:05:01;;;;;;;;;;;;;;;9.61;38.67;101450.44;4893287;28;98963;-80
2021/04/27 00:07:27;;;;;;;;;;;;;;;9.50;38.24;101453.28;4895273;28;97272;-79
2021/04/27 00:09:54;;;;;;;;;;;;;;;9.82;37.46;101450.00;4910470;28;96900;-79
2021/04/27 00:12:19;;;;;;;;;;;;;;;9.78;37.00;101445.66;4903112;28;101500;-78
2021/04/27 00:14:45;;;;;;;;;;;;;;;9.43;37.26;101456.06;4897801;28;97530;-78
2021/04/27 00:17:11;;;;;;;;;;;;;;;9.76;36.50;101444.84;4898540;28;96849;-79
2021/04/27 00:19:38;;;;;;;;;;;;;;;9.72;35.83;101451.06;4905020;28;96881;-78
2021/04/27 00:22:04;;;;;;;;;;;;;;;9.82;35.56;101447.34;4895086;28;98862;-78
2021/04/27 00:24:39;;;;;;;;;;;;;;;9.68;35.78;101441.50;4897542;28;99176;-79
2021/04/27 00:27:05;;;;;;;;;;;;;;;9.81;34.83;101453.53;4907184;28;97149;-77
2021/04/27 00:29:31;;;;;;;;;;;;;;;9.28;36.00;101445.81;4908499;28;96815;-80
2021/04/27 00:31:57;;;;;;;;;;;;;;;9.53;33.97;101442.66;4906565;28;99683;-79
2021/04/27 00:34:23;;;;;;;;;;;;;;;9.42;34.37;101442.03;4910047;28;99284;-79
2021/04/27 00:36:58;;;;;;;;;;;;;;;9.58;34.62;101439.97;4907862;28;97215;-80
2021/04/27 00:39:24;;;;;;;;;;;;;;;9.17;35.06;101433.72;4916560;28;96577;-79
2021/04/27 00:41:50;;;;;;;;;;;;;;;9.44;34.83;101432.31;4916214;28;99763;-80
2021/04/27 00:44:15;;;;;;;;;;;;;;;9.58;34.42;101429.41;4916587;28;99183;-80
2021/04/27 00:46:41;;;;;;;;;;;;;;;9.69;33.94;101427.41;4913379;28;96675;-80
2021/04/27 00:49:07;;;;;;;;;;;;;;;9.57;33.86;101432.94;4908411;28;96955;-80
2021/04/27 00:51:34;;;;;;;;;;;;;;;9.56;34.03;101432.06;4901417;28;99129;-81
2021/04/27 00:54:03;;;;;;;;;;;;;;;9.82;33.42;101428.88;4903632;28;99416;-80
2021/04/27 00:56:28;;;;;;;;;;;;;;;9.86;33.85;101425.25;4899983;28;96862;-79
2021/04/27 00:58:54;;;;;;;;;;;;;;;9.93;33.10;101413.66;4902855;28;96762;-80
2021/04/27 01:01:20;;;;;;;;;;;;;;;9.92;32.87;101419.84;4898036;28;97693;-79
2021/04/27 01:03:46;;;;;;;;;;;;;;;9.99;32.80;101418.81;4895757;28;99160;-79
2021/04/27 01:06:12;;;;;;;;;;;;;;;10.29;32.16;101421.69;4895867;28;96873;-79
2021/04/27 01:08:43;;;;;;;;;;;;;;;10.04;32.57;101418.72;4895869;28;96873;-78
2021/04/27 01:11:15;;;;;;;;;;;;;;;10.04;32.31;101413.44;4895740;28;98922;-79
2021/04/27 01:13:43;;;;;;;;;;;;;;;9.04;33.60;101421.66;4898256;28;100647;-78
2021/04/27 01:16:10;;;;;;;;;;;;;;;9.41;32.81;101413.91;4888711;28;96787;-78
2021/04/27 01:18:37;;;;;;;;;;;;;;;9.52;32.91;101413.66;4896094;28;97015;-78
2021/04/27 01:21:04;;;;;;;;;;;;;;;9.43;33.08;101408.59;4894350;28;102027;-78
2021/04/27 01:23:42;;;;;;;;;;;;;;;9.38;33.16;101410.47;4895131;28;99355;-79
2021/04/27 01:26:09;;;;;;;;;;;;;;;9.26;33.11;101411.56;4893092;28;96808;-78
2021/04/27 01:28:36;;;;;;;;;;;;;;;9.48;32.69;101412.88;4904907;28;96847;-78
2021/04/27 01:31:03;;;;;;;;;;;;;;;9.23;33.25;101416.03;4902474;28;98951;-78
2021/04/27 01:33:31;;;;;;;;;;;;;;;9.63;32.35;101411.69;4911924;28;97761;-80
2021/04/27 01:35:57;;;;;;;;;;;;;;;9.64;32.35;101404.66;4908498;28;97695;-79
2021/04/27 01:38:24;;;;;;;;;;;;;;;9.80;32.41;101404.28;4904165;28;96795;-80
2021/04/27 01:40:50;;;;;;;;;;;;;;;9.76;31.94;101399.97;4896972;28;99404;-80
2021/04/27 01:43:18;;;;;;;;;;;;;;;9.34;32.33;101409.63;4897969;28;99396;-80
2021/04/27 01:45:45;;;;;;;;;;;;;;;9.21;32.49;101405.50;4895393;28;97238;-80
2021/04/27 01:48:12;;;;;;;;;;;;;;;9.11;32.72;101406.59;4896733;28;97020;-80
2021/04/27 01:50:40;;;;;;;;;;;;;;;9.50;31.88;101404.94;4896074;28;99340;-81
2021/04/27 01:53:06;;;;;;;;;;;;;;;9.53;32.09;101396.94;4889625;28;97753;-79
2021/04/27 01:55:31;;;;;;;;;;;;;;;8.69;33.51;101401.19;4898899;28;96974;-80
2021/04/27 01:57:57;;;;;;;;;;;;;;;8.82;33.46;101398.34;4891057;28;97958;-80
2021/04/27 02:00:24;;;;;;;;;;;;;;;8.60;33.78;101392.59;4892962;28;97823;-79
2021/04/27 02:02:51;;;;;;;;;;;;;;;8.68;33.83;101395.94;4896799;28;98833;-79
2021/04/27 02:05:17;;;;;;;;;;;;;;;8.91;33.39;101399.06;4902492;28;97302;-79
2021/04/27 02:07:43;;;;;;;;;;;;;;;9.34;33.13;101393.81;4896665;28;96811;-79
2021/04/27 02:10:10;;;;;;;;;;;;;;;9.23;33.06;101397.56;4894579;28;98321;-80
2021/04/27 02:12:38;;;;;;;;;;;;;;;9.23;32.45;101398.44;4885240;28;99286;-80
2021/04/27 02:15:05;;;;;;;;;;;;;;;9.31;32.31;101398.31;4876284;28;96795;-80
2021/04/27 02:17:32;;;;;;;;;;;;;;;9.32;32.05;101394.78;4894035;28;96878;-78
2021/04/27 02:20:00;;;;;;;;;;;;;;;9.63;31.61;101390.59;4893206;28;98870;-78
2021/04/27 02:22:27;;;;;;;;;;;;;;;9.32;32.02;101392.97;4894855;28;101336;-80
2021/04/27 02:24:54;;;;;;;;;;;;;;;9.62;31.69;101386.22;4901062;28;96947;-80
2021/04/27 02:27:19;;;;;;;;;;;;;;;9.57;31.77;101391.59;4909826;28;96901;-81
2021/04/27 02:29:46;;;;;;;;;;;;;;;9.25;32.75;101386.09;4913023;28;99364;-80
2021/04/27 02:32:13;;;;;;;;;;;;;;;8.97;33.59;101387.53;4912457;28;97841;-80
2021/04/27 02:34:39;;;;;;;;;;;;;;;8.51;34.96;101387.47;4911906;28;97379;-79
2021/04/27 02:37:06;;;;;;;;;;;;;;;8.44;35.85;101385.84;4905336;28;97102;-78
2021/04/27 02:39:31;;;;;;;;;;;;;;;8.90;35.01;101386.78;4906467;28;98996;-79
2021/04/27 02:41:57;;;;;;;;;;;;;;;8.63;34.84;101380.22;4901074;28;99121;-79
2021/04/27 02:44:23;;;;;;;;;;;;;;;8.56;35.28;101385.63;4907205;28;98684;-79
2021/04/27 02:46:49;;;;;;;;;;;;;;;8.89;34.27;101379.75;4898208;28;97169;-79
2021/04/27 02:49:15;;;;;;;;;;;;;;;8.94;34.20;101372.63;4893561;28;99323;-80
2021/04/27 02:51:41;;;;;;;;;;;;;;;8.73;34.40;101373.88;4894062;28;99115;-80
2021/04/27 02:54:08;;;;;;;;;;;;;;;8.86;34.30;101373.69;4882263;28;97577;-80
2021/04/27 02:56:34;;;;;;;;;;;;;;;8.79;34.11;101373.78;4892608;28;97050;-79
2021/04/27 02:59:00;;;;;;;;;;;;;;;8.70;34.19;101379.22;4893606;28;100309;-79
2021/04/27 03:01:26;;;;;;;;;;;;;;;8.87;33.74;101371.00;4876764;28;98784;-79
2021/04/27 03:03:52;;;;;;;;;;;;;;;8.40;34.54;101380.59;4893140;28;96917;-80
2021/04/27 03:06:18;;;;;;;;;;;;;;;8.52;34.55;101379.56;4894380;28;96889;-80
2021/04/27 03:08:44;;;;;;;;;;;;;;;8.89;33.61;101374.50;4901309;28;99024;-80
2021/04/27 03:11:11;;;;;;;;;;;;;;;8.94;33.15;101380.53;4894182;28;99153;-78
2021/04/27 03:13:37;;;;;;;;;;;;;;;8.73;33.85;101373.88;4892074;28;98794;-78
2021/04/27 03:16:02;;;;;;;;;;;;;;;8.92;33.58;101379.72;4895414;28;96898;-79
2021/04/27 03:18:28;;;;;;;;;;;;;;;8.98;33.13;101384.00;4893816;28;98866;-79
2021/04/27 03:20:54;;;;;;;;;;;;;;;9.19;32.65;101378.28;4893285;28;99124;-79
2021/04/27 03:23:22;;;;;;;;;;;;;;;9.15;32.90;101371.34;4892560;28;96992;-80
2021/04/27 03:25:48;;;;;;;;;;;;;;;8.86;33.40;101377.16;4891935;28;97282;-79
2021/04/27 03:28:14;;;;;;;;;;;;;;;8.91;33.17;101371.84;4891136;28;98854;-79
2021/04/27 03:30:40;;;;;;;;;;;;;;;8.97;33.04;101371.72;4892269;28;98829;-81
2021/04/27 03:33:06;;;;;;;;;;;;;;;9.08;32.44;101367.97;4885203;28;96870;-80
2021/04/27 03:35:32;;;;;;;;;;;;;;;9.12;32.75;101369.63;4891189;28;97178;-80
2021/04/27 03:37:58;;;;;;;;;;;;;;;9.18;32.57;101361.63;4895236;28;97719;-81
2021/04/27 03:40:24;;;;;;;;;;;;;;;8.92;32.81;101373.56;4904878;28;98033;-80
2021/04/27 03:42:50;;;;;;;;;;;;;;;9.09;32.52;101366.19;4902024;28;96773;-80
2021/04/27 03:45:19;;;;;;;;;;;;;;;9.26;32.53;101358.81;4889866;28;96762;-80
2021/04/27 03:47:45;;;;;;;;;;;;;;;9.27;32.31;101363.19;4879560;28;99752;-82
2021/04/27 03:50:13;;;;;;;;;;;;;;;9.17;32.54;101362.53;4894459;28;98630;-79
2021/04/27 03:52:39;;;;;;;;;;;;;;;9.37;31.89;101361.25;4891471;28;96771;-80
2021/04/27 03:55:06;;;;;;;;;;;;;;;9.06;32.39;101361.84;4893287;28;96853;-80
2021/04/27 03:57:31;;;;;;;;;;;;;;;9.04;32.57;101363.66;4901113;28;99189;-80
2021/04/27 03:59:58;;;;;;;;;;;;;;;8.88;32.73;101367.47;4892731;28;100125;-80
2021/04/27 04:02:24;;;;;;;;;;;;;;;9.01;32.46;101366.34;4894217;28;97235;-79
2021/04/27 04:04:51;;;;;;;;;;;;;;;8.86;32.95;101366.63;4892797;28;96860;-79
2021/04/27 04:07:16;;;;;;;;;;;;;;;9.05;32.64;101375.09;4886419;28;98792;-79
2021/04/27 04:09:42;;;;;;;;;;;;;;;8.80;32.79;101379.91;4893042;28;98787;-79
2021/04/27 04:12:09;;;;;;;;;;;;;;;9.09;32.13;101374.97;4894834;28;96671;-80
2021/04/27 04:14:34;;;;;;;;;;;;;;;9.18;31.77;101377.44;4899688;28;96707;-80
2021/04/27 04:17:00;;;;;;;;;;;;;;;9.58;31.58;101372.19;4900648;28;98906;-80
2021/04/27 04:19:28;;;;;;;;;;;;;;;9.31;31.80;101382.47;4902533;28;99338;-79
2021/04/27 04:21:54;;;;;;;;;;;;;;;9.29;31.68;101373.72;4893689;28;96778;-80
2021/04/27 04:24:20;;;;;;;;;;;;;;;9.31;31.57;101377.19;4893718;28;97421;-79
2021/04/27 04:26:46;;;;;;;;;;;;;;;9.23;31.48;101382.63;4894237;28;99016;-80
2021/04/27 04:29:11;;;;;;;;;;;;;;;9.87;30.88;101375.97;4894092;28;97688;-80
2021/04/27 04:31:37;;;;;;;;;;;;;;;9.62;31.18;101378.28;4892859;28;96855;-81
2021/04/27 04:34:03;;;;;;;;;;;;;;;9.58;30.88;101384.53;4894036;28;96760;-80
2021/04/27 04:36:30;;;;;;;;;;;;;;;9.76;30.68;101381.50;4893049;28;97825;-80
2021/04/27 04:38:56;;;;;;;;;;;;;;;9.82;30.58;101380.50;4892262;28;97833;-80
2021/04/27 04:41:22;;;;;;;;;;;;;;;9.95;29.97;101381.97;4893119;28;96972;-78
2021/04/27 04:43:48;;;;;;;;;;;;;;;10.12;30.01;101373.63;4893134;28;96838;-79
2021/04/27 04:46:13;;;;;;;;;;;;;;;10.18;29.83;101378.78;4891152;28;99217;-78
2021/04/27 04:48:39;;;;;;;;;;;;;;;10.18;29.70;101382.31;4891537;28;98128;-79
2021/04/27 04:51:05;;;;;;;;;;;;;;;10.02;30.37;101383.56;4892387;28;96877;-78
2021/04/27 04:53:32;;;;;;;;;;;;;;;10.15;29.92;101378.84;4893656;28;96873;-80
2021/04/27 04:55:58;;;;;;;;;;;;;;;9.98;30.28;101387.16;4897011;28;98127;-80
2021/04/27 04:58:23;;;;;;;;;;;;;;;9.77;30.47;101385.00;4895475;28;100130;-81
2021/04/27 05:00:49;;;;;;;;;;;;;;;9.92;30.62;101382.88;4896785;28;96897;-79
2021/04/27 05:03:15;;;;;;;;;;;;;;;10.30;29.71;101383.81;4889069;28;97185;-79
2021/04/27 05:05:42;;;;;;;;;;;;;;;10.50;29.35;101373.59;4893063;28;98908;-81
2021/04/27 05:08:11;;;;;;;;;;;;;;;10.83;29.04;101384.22;4904819;28;98952;-82
2021/04/27 05:10:38;;;;;;;;;;;;;;;10.93;29.00;101375.13;4893144;28;96970;-83
2021/04/27 05:13:04;;;;;;;;;;;;;;;10.94;29.09;101384.81;4894965;28;97375;-82
2021/04/27 05:15:30;;;;;;;;;;;;;;;10.95;29.28;101378.59;4896463;28;97854;-80
2021/04/27 05:17:56;;;;;;;;;;;;;;;10.65;29.44;101378.50;4898663;28;101413;-81
2021/04/27 05:20:23;;;;;;;;;;;;;;;11.23;28.64;101378.69;4895306;28;97756;-80
2021/04/27 05:22:49;;;;;;;;;;;;;;;11.03;29.16;101379.25;4897020;28;97241;-79
2021/04/27 05:25:15;;;;;;;;;;;;;;;11.40;28.33;101371.16;4893829;28;99039;-80
2021/04/27 05:27:41;;;;;;;;;;;;;;;11.61;28.14;101370.53;4886101;28;98960;-79
2021/04/27 05:30:08;;;;;;;;;;;;;;;11.54;28.29;101380.44;4889391;28;98596;-79
2021/04/27 05:32:34;;;;;;;;;;;;;;;11.10;28.69;101370.22;4892798;28;97168;-78
2021/04/27 05:35:00;;;;;;;;;;;;;;;11.33;29.17;101370.47;4893471;28;98892;-80
2021/04/27 05:37:26;;;;;;;;;;;;;;;11.61;28.32;101370.53;4891587;28;99003;-79
2021/04/27 05:39:52;;;;;;;;;;;;;;;11.62;28.28;101374.91;4894679;28;96935;-80
2021/04/27 05:42:18;;;;;;;;;;;;;;;11.36;28.76;101375.66;4893479;28;99154;-79
2021/04/27 05:44:44;;;;;;;;;;;;;;;11.38;28.61;101378.25;4886571;28;98941;-80
2021/04/27 05:47:10;;;;;;;;;;;;;;;11.63;28.22;101379.28;4886437;28;98991;-81
2021/04/27 05:49:36;;;;;;;;;;;;;;;11.88;27.92;101384.75;4892650;28;97625;-81
2021/04/27 05:52:02;;;;;;;;;;;;;;;11.73;27.83;101374.59;4893636;28;96864;-81
2021/04/27 05:54:27;;;;;;;;;;;;;;;11.63;28.34;101381.06;4892385;28;101564;-79
2021/04/27 05:56:55;;;;;;;;;;;;;;;11.80;28.02;101374.41;4891239;28;98902;-80
2021/04/27 05:59:21;;;;;;;;;;;;;;;11.76;27.91;101385.97;4894270;28;97409;-81
2021/04/27 06:01:49;;;;;;;;;;;;;;;11.83;28.05;101378.72;4891788;28;97192;-81
2021/04/27 06:04:15;;;;;;;;;;;;;;;12.59;26.69;101381.56;4890639;28;102653;-82
2021/04/27 06:06:41;;;;;;;;;;;;;;;13.01;26.12;101374.75;4897485;28;99391;-82
2021/04/27 06:09:08;;;;;;;;;;;;;;;13.26;25.65;101368.63;4899274;28;96737;-82
2021/04/27 06:11:34;;;;;;;;;;;;;;;14.46;24.39;101375.41;4906638;28;96786;-82
2021/04/27 06:14:00;;;;;;;;;;;;;;;14.20;24.28;101370.25;4897957;28;99290;-81
2021/04/27 06:16:26;;;;;;;;;;;;;;;13.51;25.14;101366.78;4899350;28;100787;-81
2021/04/27 06:18:53;;;;;;;;;;;;;;;13.34;25.61;101375.34;4911940;28;97733;-80
2021/04/27 06:21:19;;;;;;;;;;;;;;;13.31;25.68;101379.94;4903896;28;97432;-78
2021/04/27 06:23:45;;;;;;;;;;;;;;;13.29;25.43;101379.97;4901398;28;97924;-78
2021/04/27 06:26:11;;;;;;;;;;;;;;;13.31;25.34;101375.50;4897850;28;97695;-79
2021/04/27 06:28:37;;;;;;;;;;;;;;;12.12;26.67;101378.69;4896755;28;96809;-79
2021/04/27 06:31:03;;;;;;;;;;;;;;;11.30;27.84;101382.91;4903309;28;96586;-80
2021/04/27 06:33:29;;;;;;;;;;;;;;;12.23;26.73;101384.50;4901000;28;98534;-78
2021/04/27 06:35:56;;;;;;;;;;;;;;;11.32;27.69;101368.72;4901819;28;98393;-76
2021/04/27 06:38:22;;;;;;;;;;;;;;;11.89;27.24;101378.53;4894959;28;97173;-77
2021/04/27 06:40:50;;;;;;;;;;;;;;;12.46;26.64;101383.75;4895688;28;98274;-79
2021/04/27 06:43:15;;;;;;;;;;;;;;;11.97;27.13;101376.50;4894410;28;99485;-77
2021/04/27 06:45:41;;;;;;;;;;;;;;;12.45;26.30;101378.50;4891883;28;98870;-79
2021/04/27 06:48:08;;;;;;;;;;;;;;;13.37;25.28;101385.88;4895295;28;97476;-78
2021/04/27 06:50:35;;;;;;;;;;;;;;;13.80;24.63;101382.47;4893745;28;97611;-79
2021/04/27 06:53:02;;;;;;;;;;;;;;;13.85;24.61;101388.44;4899286;28;98152;-77
2021/04/27 06:55:29;;;;;;;;;;;;;;;14.40;23.70;101380.09;4901679;28;100689;-80
2021/04/27 06:58:01;;;;;;;;;;;;;;;14.56;23.48;101382.06;4902256;28;96970;-79
2021/04/27 07:00:27;;;;;;;;;;;;;;;14.02;23.33;101378.97;4884421;28;97577;-79
2021/04/27 07:02:53;;;;;;;;;;;;;;;13.86;23.48;101378.69;4904079;28;97811;-79
2021/04/27 07:05:19;;;;;;;;;;;;;;;13.82;23.40;101385.06;4895822;28;98012;-80
2021/04/27 07:07:45;;;;;;;;;;;;;;;13.86;23.01;101381.34;4898974;28;98341;-81
2021/04/27 07:10:12;;;;;;;;;;;;;;;13.68;23.21;101376.75;4909641;28;96929;-80
2021/04/27 07:12:38;;;;;;;;;;;;;;;13.64;23.27;101377.81;4918607;28;101145;-80
2021/04/27 07:15:04;;;;;;;;;;;;;;;14.29;22.57;101383.19;4909154;28;99255;-80
2021/04/27 07:17:30;;;;;;;;;;;;;;;14.31;22.15;101381.31;4900753;28;97354;-82
2021/04/27 07:19:56;;;;;;;;;;;;;;;14.84;21.88;101371.09;4899654;28;96768;-80
2021/04/27 07:22:22;;;;;;;;;;;;;;;14.75;21.79;101375.06;4902277;28;96981;-80
2021/04/27 07:24:48;;;;;;;;;;;;;;;14.44;22.17;101381.72;4894960;28;97231;-80
2021/04/27 07:27:16;;;;;;;;;;;;;;;14.43;21.97;101380.84;4902471;28;97280;-79
2021/04/27 07:29:41;;;;;;;;;;;;;;;14.99;22.01;101381.09;4899114;28;97490;-80
2021/04/27 07:32:10;;;;;;;;;;;;;;;14.59;22.05;101381.06;4890790;28;98483;-81
2021/04/27 07:34:36;;;;;;;;;;;;;;;15.13;21.52;101377.81;4897751;28;99019;-80
2021/04/27 07:37:02;;;;;;;;;;;;;;;15.07;21.61;101378.97;4892763;28;96872;-79
2021/04/27 07:39:28;;;;;;;;;;;;;;;14.97;21.89;101377.63;4894978;28;96933;-81
2021/04/27 07:41:54;;;;;;;;;;;;;;;14.77;21.93;101375.81;4896896;28;99777;-80
2021/04/27 07:44:21;;;;;;;;;;;;;;;14.91;21.81;101377.03;4890797;28;101163;-79
2021/04/27 07:46:47;;;;;;;;;;;;;;;14.71;22.24;101378.75;4894099;28;96957;-81
2021/04/27 07:49:12;;;;;;;;;;;;;;;15.13;21.88;101373.38;4905506;28;96813;-79
2021/04/27 07:51:39;;;;;;;;;;;;;;;14.74;22.24;101375.09;4901664;28;98788;-79
2021/04/27 07:54:05;;;;;;;;;;;;;;;15.09;21.51;101368.25;4890846;28;99503;-79
2021/04/27 07:56:31;;;;;;;;;;;;;;;14.50;22.33;101377.00;4891907;28;97323;-80
2021/04/27 07:58:57;;;;;;;;;;;;;;;14.07;23.03;101376.97;4897752;28;96874;-80
2021/04/27 08:01:25;;;;;;;;;;;;;;;14.48;22.46;101376.22;4892198;28;100268;-79
2021/04/27 08:03:51;;;;;;;;;;;;;;;14.84;21.80;101372.91;4890549;28;98913;-81
2021/04/27 08:06:17;;;;;;;;;;;;;;;15.29;21.33;101368.25;4900937;28;96963;-81
2021/04/27 08:08:43;;;;;;;;;;;;;;;15.90;20.77;101366.28;4897288;28;96888;-82
2021/04/27 08:11:09;;;;;;;;;;;;;;;14.77;21.80;101359.88;4905600;28;100464;-80
2021/04/27 08:13:35;;;;;;;;;;;;;;;14.65;21.76;101372.81;4908699;28;99841;-79
2021/04/27 08:16:04;;;;;;;;;;;;;;;15.09;21.02;101371.78;4909143;28;97278;-80
2021/04/27 08:18:31;;;;;;;;;;;;;;;15.62;20.14;101362.34;4913961;28;96617;-80
2021/04/27 08:26:20;;;;;;;;;;;;;;;15.17;19.92;101355.44;4904499;28;96684;-81
2021/04/27 08:28:46;;;;;;;;;;;;;;;14.95;21.11;101354.69;4907102;28;96896;-80
2021/04/27 08:31:12;;;;;;;;;;;;;;;15.67;19.82;101357.66;4909369;28;99585;-81
2021/04/27 08:33:39;;;;;;;;;;;;;;;15.84;19.83;101355.91;4896310;28;99366;-81
2021/04/27 08:36:05;;;;;;;;;;;;;;;16.10;19.05;101361.78;4898040;28;97097;-81
2021/04/27 08:38:31;;;;;;;;;;;;;;;16.05;18.51;101354.00;4903305;28;96855;-80
2021/04/27 08:40:58;;;;;;;;;;;;;;;14.53;20.71;101357.38;4901543;28;99190;-79
2021/04/27 08:43:24;;;;;;;;;;;;;;;16.06;19.54;101355.75;4906591;28;98544;-80
2021/04/27 08:45:51;;;;;;;;;;;;;;;15.82;18.73;101349.78;4908263;28;97210;-79
2021/04/27 08:48:17;;;;;;;;;;;;;;;15.82;19.29;101349.78;4887889;28;97010;-81
2021/04/27 08:50:45;;;;;;;;;;;;;;;15.93;19.03;101347.47;4901044;28;97633;-79
2021/04/27 08:53:11;;;;;;;;;;;;;;;16.22;19.23;101351.38;4904881;28;98429;-79
2021/04/27 08:55:38;;;;;;;;;;;;;;;15.95;19.40;101348.25;4894081;28;96840;-80
2021/04/27 08:58:05;;;;;;;;;;;;;;;14.00;21.01;101340.94;4899741;28;98012;-79
2021/04/27 09:00:31;;;;;;;;;;;;;;;14.24;21.52;101338.16;4897529;28;98296;-81
2021/04/27 09:02:58;;;;;;;;;;;;;;;14.21;21.82;101337.44;4897745;28;99536;-79
2021/04/27 09:05:25;;;;;;;;;;;;;;;14.26;21.53;101332.78;4902816;28;97268;-80
2021/04/27 09:07:52;;;;;;;;;;;;;;;13.95;21.32;101326.06;4895048;28;98144;-81
2021/04/27 09:10:20;;;;;;;;;;;;;;;13.57;21.59;101326.72;4903673;28;97891;-80
2021/04/27 09:12:47;;;;;;;;;;;;;;;14.54;20.86;101327.22;4894475;28;98126;-80
2021/04/27 09:15:22;;;;;;;;;;;;;;;14.56;20.96;101320.91;4900871;28;96817;-81
2021/04/27 09:17:48;;;;;;;;;;;;;;;15.02;20.78;101321.56;4892541;28;98297;-81
2021/04/27 09:20:14;;;;;;;;;;;;;;;14.54;21.50;101317.44;4895617;28;99855;-80
2021/04/27 09:22:42;;;;;;;;;;;;;;;14.80;21.36;101315.44;4905696;28;97687;-80
2021/04/27 09:25:14;;;;;;;;;;;;;;;14.93;21.12;101322.81;4905675;28;96737;-80
2021/04/27 09:27:42;;;;;;;;;;;;;;;15.18;20.38;101306.59;4907432;28;97364;-80
2021/04/27 09:30:12;;;;;;;;;;;;;;;16.08;19.69;101303.19;4898463;28;100675;-80
2021/04/27 09:32:38;;;;;;;;;;;;;;;16.08;19.75;101302.38;4902562;28;100153;-79
2021/04/27 09:35:26;;;;;;;;;;;;;;;16.01;18.96;101303.59;4899298;28;96889;-79
2021/04/27 09:38:13;;;;;;;;;;;;;;;16.06;18.89;101307.75;4895254;28;97132;-82
2021/04/27 09:40:53;;;;;;;;;;;;;;;15.52;19.70;101303.25;4895395;28;100755;-81
2021/04/27 09:43:21;;;;;;;;;;;;;;;16.30;19.53;101298.53;4895493;28;98710;-79
2021/04/27 09:45:49;;;;;;;;;;;;;;;14.58;20.64;101291.56;4896192;28;97015;-78
2021/04/27 09:48:28;;;;;;;;;;;;;;;15.23;20.33;101288.63;4903963;28;99305;-79
2021/04/27 09:50:54;;;;;;;;;;;;;;;14.99;20.87;101287.09;4895800;28;101632;-80
2021/04/27 09:53:38;;;;;;;;;;;;;;;15.59;20.23;101287.88;4889054;28;99498;-81
2021/04/27 09:56:05;;;;;;;;;;;;;;;15.89;19.67;101283.72;4883490;28;97624;-80
2021/04/27 09:58:31;;;;;;;;;;;;;;;15.92;19.49;101286.25;4886650;28;96845;-80
2021/04/27 10:00:58;;;;;;;;;;;;;;;15.49;19.51;101282.94;4884250;28;100345;-81
2021/04/27 10:03:27;;;;;;;;;;;;;;;14.55;20.54;101275.75;4888484;28;99944;-81
2021/04/27 10:05:53;;;;;;;;;;;;;;;14.56;20.13;101275.69;4893510;28;98831;-80
2021/04/27 10:08:19;;;;;;;;;;;;;;;14.53;20.46;101265.19;4890049;28;99052;-81
2021/04/27 10:10:48;;;;;;;;;;;;;;;15.21;20.10;101268.34;4894797;28;99011;-79
2021/04/27 10:13:15;;;;;;;;;;;;;;;15.46;20.14;101271.59;4892956;28;99847;-80
2021/04/27 10:15:42;;;;;;;;;;;;;;;15.89;19.20;101265.94;4897568;28;96873;-80
2021/04/27 10:18:08;;;;;;;;;;;;;;;15.47;19.79;101258.19;4895452;28;98757;-79
2021/04/27 10:20:37;;;;;;;;;;;;;;;15.01;20.01;101255.94;4897763;28;99137;-81
2021/04/27 10:23:08;;;;;;;;;;;;;;;15.22;20.00;101244.31;4893256;28;99152;-80
2021/04/27 10:25:35;;;;;;;;;;;;;;;15.47;19.75;101247.53;4897745;28;98497;-78
2021/04/27 10:28:03;;;;;;;;;;;;;;;15.62;19.97;101245.94;4894425;28;96891;-77
2021/04/27 10:30:32;;;;;;;;;;;;;;;14.62;20.75;101243.50;4893472;28;98980;-80
2021/04/27 10:33:11;;;;;;;;;;;;;;;15.69;19.11;101243.84;4892415;28;100037;-79
2021/04/27 10:35:40;;;;;;;;;;;;;;;15.97;18.53;101230.91;4893425;28;96829;-80
2021/04/27 10:38:07;;;;;;;;;;;;;;;15.94;19.10;101231.94;4889694;28;97325;-79
2021/04/27 10:40:46;;;;;;;;;;;;;;;15.38;19.20;101239.13;4896780;28;101518;-79
2021/04/27 10:43:46;;;;;;;;;;;;;;;14.98;19.18;101227.66;4889618;28;97635;-80
2021/04/27 10:46:30;;;;;;;;;;;;;;;15.05;19.09;101231.78;4891242;28;96875;-80
2021/04/27 10:49:07;;;;;;;;;;;;;;;14.88;19.68;101222.84;4883225;28;97552;-78
2021/04/27 10:51:34;;;;;;;;;;;;;;;14.65;19.87;101216.75;4898069;28;97757;-79
2021/04/27 10:54:12;;;;;;;;;;;;;;;14.42;19.73;101219.59;4900116;28;98922;-80
2021/04/27 10:56:40;;;;;;;;;;;;;;;14.91;20.31;101218.25;4896541;28;97423;-80
2021/04/27 10:59:07;;;;;;;;;;;;;;;14.49;19.41;101209.56;4892990;28;96967;-80
2021/04/27 11:01:36;;;;;;;;;;;;;;;15.13;19.15;101211.00;4909074;28;98453;-80
2021/04/27 11:04:03;;;;;;;;;;;;;;;15.37;19.03;101200.97;4891669;28;99611;-82
2021/04/27 11:06:30;;;;;;;;;;;;;;;15.80;18.56;101197.13;4888322;28;97566;-82
2021/04/27 11:08:57;;;;;;;;;;;;;;;15.38;18.90;101192.06;4895409;28;96872;-80
2021/04/27 11:11:25;;;;;;;;;;;;;;;15.61;18.94;101193.66;4902528;28;98311;-83
2021/04/27 11:13:51;;;;;;;;;;;;;;;14.68;20.01;101189.19;4900508;28;97766;-80
2021/04/27 11:16:27;;;;;;;;;;;;;;;15.18;19.79;101192.13;4891945;28;97256;-80
2021/04/27 11:19:08;;;;;;;;;;;;;;;15.31;19.72;101193.28;4898080;28;99043;-79
2021/04/27 11:21:43;;;;;;;;;;;;;;;16.04;19.00;101181.69;4906212;28;99431;-79
2021/04/27 11:24:29;;;;;;;;;;;;;;;16.16;18.51;101172.19;4898386;28;98794;-82
2021/04/27 11:26:55;;;;;;;;;;;;;;;15.48;18.94;101174.72;4893696;28;97147;-81
2021/04/27 11:29:22;;;;;;;;;;;;;;;15.76;19.04;101168.88;4900951;28;96848;-79
2021/04/27 11:31:51;;;;;;;;;;;;;;;15.04;19.69;101173.28;4888108;28;98843;-80
2021/04/27 11:34:17;;;;;;;;;;;;;;;15.54;19.12;101170.91;4892304;28;99172;-82
2021/04/27 11:36:45;;;;;;;;;;;;;;;15.64;19.44;101163.31;4898122;28;96846;-78
2021/04/27 11:39:11;;;;;;;;;;;;;;;15.72;19.51;101169.13;4900294;28;97125;-80
2021/04/27 11:41:44;;;;;;;;;;;;;;;15.83;19.66;101164.97;4896939;28;100995;-79
2021/04/27 11:44:10;;;;;;;;;;;;;;;16.01;19.78;101165.00;4885207;28;100629;-80
2021/04/27 11:46:57;;;;;;;;;;;;;;;15.31;20.23;101158.66;4895067;28;96965;-81
2021/04/27 11:49:44;;;;;;;;;;;;;;;16.24;19.78;101151.31;4881291;28;96819;-81
2021/04/27 11:52:11;;;;;;;;;;;;;;;16.13;19.44;101151.03;4897778;28;98101;-80
2021/04/27 11:54:37;;;;;;;;;;;;;;;16.28;19.22;101143.06;4896433;28;98803;-79
2021/04/27 11:57:03;;;;;;;;;;;;;;;15.66;19.71;101143.66;4891369;28;97454;-79
2021/04/27 11:59:29;;;;;;;;;;;;;;;14.60;20.89;101139.00;4891790;28;97479;-79
2021/04/27 12:01:59;;;;;;;;;;;;;;;15.07;20.68;101131.44;4894981;28;98484;-80
2021/04/27 12:04:26;;;;;;;;;;;;;;;15.57;20.16;101137.91;4899420;28;97953;-79
2021/04/27 12:06:58;;;;;;;;;;;;;;;16.00;18.96;101133.94;4904927;28;97047;-80
2021/04/27 12:09:25;;;;;;;;;;;;;;;16.08;19.25;101127.25;4910176;28;96846;-81
2021/04/27 12:11:51;;;;;;;;;;;;;;;16.21;19.48;101120.34;4911194;28;97943;-80
2021/04/27 12:14:18;;;;;;;;;;;;;;;16.10;18.80;101122.72;4915951;28;97782;-80
2021/04/27 12:16:44;;;;;;;;;;;;;;;15.89;19.50;101131.81;4912137;28;96750;-81
2021/04/27 12:19:11;;;;;;;;;;;;;;;15.71;19.90;101125.63;4915305;28;96104;-80
2021/04/27 12:22:06;;;;;;;;;;;;;;;16.20;19.40;101107.97;4903701;28;99968;-80
2021/04/27 12:24:36;;;;;;;;;;;;;;;15.54;18.85;101114.97;4906357;28;98560;-81
2021/04/27 12:27:04;;;;;;;;;;;;;;;15.75;18.96;101108.53;4889492;28;96669;-79
2021/04/27 12:29:31;;;;;;;;;;;;;;;16.68;18.73;101100.94;4904263;28;97427;-80
2021/04/27 12:32:02;;;;;;;;;;;;;;;15.69;19.63;101106.19;4903610;28;97773;-81
2021/04/27 12:34:29;;;;;;;;;;;;;;;15.83;19.36;101097.50;4901023;28;101139;-79
2021/04/27 12:36:55;;;;;;;;;;;;;;;16.70;18.57;101094.59;4905004;28;98007;-81
2021/04/27 12:39:42;;;;;;;;;;;;;;;16.87;18.05;101098.97;4902890;28;97558;-79
2021/04/27 12:42:18;;;;;;;;;;;;;;;16.42;18.61;101097.00;4891973;28;101067;-80
2021/04/27 12:44:48;;;;;;;;;;;;;;;16.22;18.82;101084.75;4906602;28;98127;-79
2021/04/27 12:47:18;;;;;;;;;;;;;;;15.78;19.15;101086.22;4908589;28;96741;-80